Time;durP1;ratioP1;P1;durP2;ratioP2;P2;SDS_P1;SDS_P2;PMS_P1;PMS_P2;Temp;Humidity;BMP_temperature;BMP_pressure;BME280_temperature;BME280_humidity;BME280_pressure;Samples;Min_cycle;Max_cycle;Signal;HPM_P1;HPM_P2
2021/12/26 00:01:22;;;;;;;4.97;2.27;;;-3.50;99.90;;;;;;5079773;28;20592;-55
2021/12/26 00:03:50;;;;;;;1.33;1.10;;;-3.60;99.90;;;;;;5079571;28;20426;-51
2021/12/26 00:06:21;;;;;;;3.47;3.17;;;-3.60;99.90;;;;;;5079305;28;20466;-55
2021/12/26 00:08:49;;;;;;;2.80;2.30;;;-3.60;99.90;;;;;;5079536;28;20460;-59
2021/12/26 00:11:17;;;;;;;4.30;1.53;;;-3.50;99.90;;;;;;5079558;28;20467;-58
2021/12/26 00:13:44;;;;;;;1.17;1.07;;;-3.60;99.90;;;;;;5079234;28;20435;-54
2021/12/26 00:16:13;;;;;;;2.53;2.13;;;-3.60;99.90;;;;;;5079164;28;20470;-54
2021/12/26 00:18:44;;;;;;;3.03;2.73;;;-3.60;99.90;;;;;;5079426;28;20424;-53
2021/12/26 00:21:13;;;;;;;4.87;1.60;;;-3.60;99.90;;;;;;5078990;28;20539;-51
2021/12/26 00:23:44;;;;;;;2.67;1.70;;;-3.60;99.90;;;;;;5079274;28;20478;-50
2021/12/26 00:26:11;;;;;;;1.87;1.77;;;-3.60;99.90;;;;;;5079383;28;20471;-50
2021/12/26 00:28:37;;;;;;;5.80;2.20;;;-3.60;99.90;;;;;;5079551;28;20429;-53
2021/12/26 00:31:04;;;;;;;1.37;1.23;;;-3.60;99.90;;;;;;5079494;28;20879;-58
2021/12/26 00:33:32;;;;;;;3.00;1.47;;;-3.60;99.90;;;;;;5078785;28;20468;-49
2021/12/26 00:36:00;;;;;;;2.90;2.00;;;-3.60;99.90;;;;;;5078807;28;20499;-52
2021/12/26 00:38:27;;;;;;;6.83;2.13;;;-3.60;99.90;;;;;;5079325;28;20424;-50
2021/12/26 00:40:57;;;;;;;1.77;1.00;;;-3.60;99.90;;;;;;5078766;28;20482;-56
2021/12/26 00:43:24;;;;;;;1.70;1.50;;;-3.60;99.90;;;;;;5078849;28;20475;-55
2021/12/26 00:45:51;;;;;;;3.50;2.13;;;-3.50;99.90;;;;;;5078616;28;20477;-46
2021/12/26 00:48:18;;;;;;;3.93;2.30;;;-3.60;99.90;;;;;;5078495;28;20435;-49
2021/12/26 00:50:45;;;;;;;7.00;1.90;;;-3.50;99.90;;;;;;5078234;28;20447;-54
2021/12/26 00:53:12;;;;;;;3.83;3.10;;;-3.60;99.90;;;;;;5078702;28;20424;-54
2021/12/26 00:55:41;;;;;;;8.80;3.60;;;-3.60;99.90;;;;;;5078549;28;20462;-51
2021/12/26 00:58:10;;;;;;;4.37;2.53;;;-3.60;99.90;;;;;;5078303;28;20458;-53
2021/12/26 01:00:39;;;;;;;5.03;2.43;;;-3.60;99.90;;;;;;5078492;28;20474;-54
2021/12/26 01:03:08;;;;;;;3.77;1.93;;;-3.70;99.90;;;;;;5057011;28;20433;-53
2021/12/26 01:05:37;;;;;;;5.77;3.43;;;-3.70;99.90;;;;;;5056691;28;20538;-55
2021/12/26 01:08:06;;;;;;;4.47;3.57;;;-3.70;99.90;;;;;;5056664;28;20554;-54
2021/12/26 01:10:37;;;;;;;4.07;2.20;;;-3.70;99.90;;;;;;5056587;28;20520;-51
2021/12/26 01:13:14;;;;;;;4.50;2.50;;;-3.80;99.90;;;;;;5056881;28;20456;-53
2021/12/26 01:15:43;;;;;;;6.97;2.40;;;-3.80;99.90;;;;;;5056696;28;20442;-55
2021/12/26 01:18:10;;;;;;;4.70;3.50;;;-3.80;99.90;;;;;;5058853;28;20448;-53
2021/12/26 01:20:43;;;;;;;3.97;2.73;;;-3.80;99.90;;;;;;5077607;28;20446;-55
2021/12/26 01:23:12;;;;;;;2.77;1.90;;;-3.70;99.90;;;;;;5077980;28;20478;-54
2021/12/26 01:25:39;;;;;;;4.90;3.63;;;-2.00;99.90;;;;;;5077828;28;20456;-49
2021/12/26 01:28:07;;;;;;;2.93;2.50;;;-2.30;99.90;;;;;;5078528;28;20454;-53
2021/12/26 01:30:38;;;;;;;8.20;3.93;;;-2.70;99.90;;;;;;5078068;28;20447;-54
2021/12/26 01:33:07;;;;;;;17.90;4.17;;;-2.90;99.90;;;;;;5078296;28;20468;-53
2021/12/26 01:35:35;;;;;;;6.03;2.20;;;-3.20;99.90;;;;;;5078236;28;20431;-56
2021/12/26 01:38:02;;;;;;;10.03;3.40;;;-3.40;99.90;;;;;;5078210;28;20496;-50
2021/12/26 01:40:31;;;;;;;6.10;3.20;;;-3.50;99.90;;;;;;5078249;28;20456;-53
2021/12/26 01:43:01;;;;;;;4.00;2.87;;;-3.70;99.90;;;;;;5077975;28;20479;-54
2021/12/26 01:45:30;;;;;;;4.10;3.40;;;-3.80;99.90;;;;;;5077985;28;20436;-55
2021/12/26 01:47:58;;;;;;;4.60;2.40;;;-3.90;99.90;;;;;;5077951;28;20875;-54
2021/12/26 01:50:27;;;;;;;4.50;3.53;;;-4.00;99.90;;;;;;5078014;28;20473;-56
2021/12/26 01:52:55;;;;;;;3.33;2.90;;;-4.10;99.90;;;;;;5077656;28;20455;-54
2021/12/26 01:55:24;;;;;;;7.00;2.30;;;-4.10;99.90;;;;;;5077644;28;20444;-53
2021/12/26 01:57:53;;;;;;;1.67;1.57;;;-4.10;99.90;;;;;;5077531;28;20488;-56
2021/12/26 02:00:21;;;;;;;5.30;2.97;;;-4.10;99.90;;;;;;5077822;28;20413;-53
2021/12/26 02:02:48;;;;;;;2.40;2.20;;;-4.10;99.90;;;;;;5077413;28;20443;-50
2021/12/26 02:05:15;;;;;;;4.07;2.53;;;-4.10;99.90;;;;;;5077278;28;20454;-52
2021/12/26 02:07:46;;;;;;;2.87;2.60;;;-4.20;99.90;;;;;;5077145;28;20484;-51
2021/12/26 02:10:13;;;;;;;5.03;3.30;;;-4.20;99.90;;;;;;5076724;28;20420;-48
2021/12/26 02:12:41;;;;;;;10.70;3.30;;;-4.20;99.90;;;;;;5077081;28;20444;-50
2021/12/26 02:15:08;;;;;;;30.63;4.03;;;-4.20;99.90;;;;;;5076665;28;20462;-50
2021/12/26 02:17:35;;;;;;;4.63;2.80;;;-4.30;99.90;;;;;;5076476;28;20463;-54
2021/12/26 02:20:21;;;;;;;6.47;3.80;;;-4.30;99.90;;;;;;5076815;28;20467;-52
2021/12/26 02:22:54;;;;;;;3.47;2.30;;;-4.30;99.90;;;;;;5076871;28;20427;-51
2021/12/26 02:27:31;;;;;;;5.53;2.80;;;-4.30;99.90;;;;;;5077098;28;20439;-48
2021/12/26 02:28:24;;;;;;;5.67;3.00;;;-4.30;99.90;;;;;;5077146;28;20467;-56
2021/12/26 02:30:55;;;;;;;7.53;4.50;;;-4.30;99.90;;;;;;5077150;28;20468;-50
2021/12/26 02:33:22;;;;;;;3.40;1.70;;;-4.30;99.90;;;;;;5076786;28;20455;-53
2021/12/26 02:35:51;;;;;;;5.10;2.37;;;-4.30;99.90;;;;;;5076539;28;20446;-53
2021/12/26 02:38:20;;;;;;;3.47;3.23;;;-4.30;99.90;;;;;;5076266;28;20438;-52
2021/12/26 02:40:55;;;;;;;2.70;1.87;;;-4.40;99.90;;;;;;5076568;28;20494;-51
2021/12/26 02:43:24;;;;;;;5.33;2.03;;;-4.40;99.90;;;;;;5076334;28;20416;-53
2021/12/26 02:45:51;;;;;;;9.87;5.17;;;-4.40;99.90;;;;;;5076507;28;20486;-52
2021/12/26 02:48:18;;;;;;;6.77;4.00;;;-4.40;99.90;;;;;;5076292;28;20480;-54
2021/12/26 02:50:46;;;;;;;11.67;3.77;;;-4.40;99.90;;;;;;5076582;28;20456;-52
2021/12/26 02:53:20;;;;;;;9.83;2.83;;;-4.40;99.90;;;;;;5076732;28;20601;-47
2021/12/26 02:55:50;;;;;;;2.73;2.50;;;-4.30;99.90;;;;;;5076939;28;20511;-50
2021/12/26 02:58:18;;;;;;;3.43;2.70;;;-4.30;99.90;;;;;;5076594;28;20490;-52
2021/12/26 03:00:50;;;;;;;3.80;3.47;;;-4.30;99.90;;;;;;5076670;28;20483;-50
2021/12/26 03:03:16;;;;;;;3.53;3.00;;;-4.30;99.90;;;;;;5076970;28;20487;-54
2021/12/26 03:05:45;;;;;;;6.33;3.83;;;-4.20;99.90;;;;;;5076556;28;20432;-51
2021/12/26 03:08:16;;;;;;;7.63;4.87;;;-4.20;99.90;;;;;;5076726;28;20486;-50
2021/12/26 03:10:44;;;;;;;3.03;1.50;;;-4.20;99.90;;;;;;5076632;28;20413;-55
2021/12/26 03:13:14;;;;;;;6.80;1.70;;;-4.20;99.90;;;;;;5076247;28;20442;-54
2021/12/26 03:15:42;;;;;;;7.70;3.70;;;-4.20;99.90;;;;;;5076168;28;20412;-54
2021/12/26 03:18:09;;;;;;;6.03;3.03;;;-4.30;99.90;;;;;;5075964;28;20446;-54
2021/12/26 03:20:39;;;;;;;1.53;1.43;;;-4.30;99.90;;;;;;5075915;28;20451;-54
2021/12/26 03:23:08;;;;;;;7.33;3.20;;;-4.30;99.90;;;;;;5076295;28;20427;-52
2021/12/26 03:25:37;;;;;;;2.60;2.07;;;-4.40;99.90;;;;;;5076989;28;20497;-55
2021/12/26 03:28:06;;;;;;;3.90;3.57;;;-4.40;99.90;;;;;;5080144;28;20491;-53
2021/12/26 03:30:34;;;;;;;1.77;1.67;;;-4.40;99.90;;;;;;5080241;28;20486;-52
2021/12/26 03:33:05;;;;;;;6.37;3.57;;;-4.40;99.90;;;;;;5079625;28;20484;-54
2021/12/26 03:35:34;;;;;;;4.20;3.37;;;-4.30;99.90;;;;;;5079997;28;20436;-53
2021/12/26 03:38:03;;;;;;;2.63;2.43;;;-4.30;99.90;;;;;;5080100;28;20482;-52
2021/12/26 03:40:30;;;;;;;3.03;1.90;;;-4.20;99.90;;;;;;5080029;28;20432;-54
2021/12/26 03:42:58;;;;;;;3.77;2.40;;;-4.10;99.90;;;;;;5079659;28;20464;-49
2021/12/26 03:45:25;;;;;;;7.43;4.53;;;-4.20;99.90;;;;;;5079620;28;20440;-51
2021/12/26 03:47:53;;;;;;;4.80;2.33;;;-4.20;99.90;;;;;;5080292;28;20556;-49
2021/12/26 03:50:22;;;;;;;4.10;1.80;;;-4.20;99.90;;;;;;5079662;28;20440;-50
2021/12/26 03:52:50;;;;;;;3.93;2.40;;;-4.20;99.90;;;;;;5079760;28;20447;-53
2021/12/26 03:55:17;;;;;;;6.87;3.70;;;-4.20;99.90;;;;;;5079377;28;20420;-50
2021/12/26 03:57:44;;;;;;;3.60;1.63;;;-4.10;99.90;;;;;;5079424;28;20440;-47
2021/12/26 04:00:14;;;;;;;3.63;2.40;;;-4.10;99.90;;;;;;5079688;28;20450;-51
2021/12/26 04:02:41;;;;;;;4.40;2.60;;;-4.10;99.90;;;;;;5079480;28;20423;-53
2021/12/26 04:05:08;;;;;;;4.03;2.83;;;-4.00;99.90;;;;;;5079232;28;20460;-53
2021/12/26 04:07:35;;;;;;;5.43;3.63;;;-4.00;99.90;;;;;;5079471;28;20502;-49
2021/12/26 04:10:02;;;;;;;3.60;2.30;;;-4.10;99.90;;;;;;5078804;28;20475;-49
2021/12/26 04:12:35;;;;;;;5.53;2.70;;;-4.10;99.90;;;;;;5079242;28;20458;-51
2021/12/26 04:15:02;;;;;;;2.50;2.30;;;-4.20;99.90;;;;;;5079111;28;20434;-49
2021/12/26 04:17:30;;;;;;;8.17;3.93;;;-4.20;99.90;;;;;;5079666;28;20479;-56
2021/12/26 04:19:56;;;;;;;3.63;3.20;;;-4.30;99.90;;;;;;5079635;28;20447;-50
2021/12/26 04:22:23;;;;;;;4.87;3.20;;;-4.30;99.90;;;;;;5079221;28;20471;-51
2021/12/26 04:24:50;;;;;;;3.43;2.90;;;-4.30;99.90;;;;;;5079194;28;20424;-57
2021/12/26 04:27:16;;;;;;;3.00;2.70;;;-4.30;99.90;;;;;;5078653;28;20487;-51
2021/12/26 04:29:46;;;;;;;2.90;2.30;;;-4.30;99.90;;;;;;5124245;22;20501;-53
2021/12/26 04:32:16;;;;;;;4.30;1.50;;;-4.10;99.90;;;;;;5098955;28;20526;-53
2021/12/26 04:34:45;;;;;;;2.03;1.93;;;-4.20;99.90;;;;;;5099045;28;20411;-52
2021/12/26 04:37:12;;;;;;;7.00;2.87;;;-4.40;99.90;;;;;;5099097;28;20435;-49
2021/12/26 04:39:39;;;;;;;5.10;2.23;;;-4.30;99.90;;;;;;5099004;28;20438;-51
2021/12/26 04:42:07;;;;;;;5.60;4.53;;;-4.30;99.90;;;;;;5098694;28;20447;-50
2021/12/26 04:44:34;;;;;;;4.80;2.93;;;-4.40;99.90;;;;;;5098633;28;20439;-57
2021/12/26 04:47:00;;;;;;;13.77;5.30;;;-4.50;99.90;;;;;;5098558;28;20496;-52
2021/12/26 04:49:29;;;;;;;2.70;1.53;;;-4.50;99.90;;;;;;5099028;28;20471;-56
2021/12/26 04:51:57;;;;;;;2.73;1.90;;;-4.60;99.90;;;;;;5098762;28;20465;-54
2021/12/26 04:54:24;;;;;;;4.43;2.43;;;-4.60;99.90;;;;;;5098861;28;20477;-54
2021/12/26 04:56:53;;;;;;;5.10;4.77;;;-4.60;99.90;;;;;;5098714;28;20435;-48
2021/12/26 04:59:19;;;;;;;3.40;3.00;;;-4.70;99.90;;;;;;5098632;28;20434;-56
2021/12/26 05:01:46;;;;;;;3.80;3.50;;;-4.70;99.90;;;;;;5098429;28;20455;-51
2021/12/26 05:04:13;;;;;;;5.13;1.83;;;-4.70;99.90;;;;;;5097954;28;20449;-52
2021/12/26 05:06:39;;;;;;;7.33;4.60;;;-4.70;99.90;;;;;;5098433;28;20461;-53
2021/12/26 05:09:10;;;;;;;11.40;3.43;;;-4.70;99.90;;;;;;5098927;28;20453;-48
2021/12/26 05:11:37;;;;;;;2.00;1.13;;;-4.70;99.90;;;;;;5098746;28;20454;-53
2021/12/26 05:14:04;;;;;;;3.07;2.87;;;-4.70;99.90;;;;;;5098564;28;20552;-54
2021/12/26 05:16:33;;;;;;;4.60;2.00;;;-4.70;99.90;;;;;;5098247;28;20482;-58
2021/12/26 05:19:00;;;;;;;2.87;2.30;;;-4.70;99.90;;;;;;5098709;28;20480;-54
2021/12/26 05:21:27;;;;;;;5.13;2.80;;;-4.70;99.90;;;;;;5098441;28;20461;-52
2021/12/26 05:23:53;;;;;;;1.60;1.50;;;-4.60;99.90;;;;;;5097775;28;20495;-53
2021/12/26 05:26:21;;;;;;;5.20;2.83;;;-4.70;99.90;;;;;;5098269;28;20443;-56
2021/12/26 05:28:48;;;;;;;8.60;2.30;;;-4.70;99.90;;;;;;5097445;28;20527;-52
2021/12/26 05:31:15;;;;;;;4.10;3.70;;;-4.70;99.90;;;;;;5097334;28;20466;-53
2021/12/26 05:33:42;;;;;;;2.93;2.73;;;-4.70;99.90;;;;;;5097286;28;20490;-53
2021/12/26 05:36:09;;;;;;;1.77;1.67;;;-4.70;99.90;;;;;;5097230;28;20934;-51
2021/12/26 05:38:36;;;;;;;3.33;2.10;;;-4.70;99.90;;;;;;5097313;28;20478;-51
2021/12/26 05:41:02;;;;;;;2.67;2.47;;;-4.70;99.90;;;;;;5097178;28;20446;-49
2021/12/26 05:43:30;;;;;;;6.90;2.77;;;-4.70;99.90;;;;;;5097612;28;20478;-52
2021/12/26 05:45:57;;;;;;;5.00;2.43;;;-4.70;99.90;;;;;;5097350;28;20423;-49
2021/12/26 05:48:24;;;;;;;2.47;2.27;;;-4.70;99.90;;;;;;5096849;28;20423;-53
2021/12/26 05:50:52;;;;;;;8.77;2.07;;;-4.70;99.90;;;;;;5097458;28;20432;-51
2021/12/26 05:53:19;;;;;;;3.27;2.47;;;-4.80;99.90;;;;;;5097400;28;20456;-55
2021/12/26 05:55:46;;;;;;;2.53;2.33;;;-4.80;99.90;;;;;;5097145;28;20539;-52
2021/12/26 05:58:15;;;;;;;3.90;3.43;;;-4.80;99.90;;;;;;5097492;28;20493;-52
2021/12/26 06:00:45;;;;;;;3.30;3.03;;;-4.90;99.90;;;;;;5097493;28;20462;-56
2021/12/26 06:03:14;;;;;;;2.23;1.63;;;-4.90;99.90;;;;;;5097249;28;20431;-51
2021/12/26 06:05:40;;;;;;;2.70;1.90;;;-4.90;99.90;;;;;;5097303;28;20439;-62
2021/12/26 06:08:07;;;;;;;3.03;2.40;;;-4.90;99.90;;;;;;5096902;28;20457;-51
2021/12/26 06:10:34;;;;;;;1.30;1.10;;;-4.90;99.90;;;;;;5096724;28;20438;-52
2021/12/26 06:13:01;;;;;;;2.97;2.50;;;-4.90;99.90;;;;;;5096578;28;20463;-55
2021/12/26 06:15:27;;;;;;;2.30;1.10;;;-4.90;99.90;;;;;;5097281;28;20437;-56
2021/12/26 06:17:58;;;;;;;10.23;3.33;;;-4.90;99.90;;;;;;5097460;28;20491;-54
2021/12/26 06:20:25;;;;;;;1.63;1.20;;;-4.80;99.90;;;;;;5097735;28;20428;-49
2021/12/26 06:22:51;;;;;;;2.40;1.70;;;-4.90;99.90;;;;;;5097113;28;20456;-56
2021/12/26 06:25:18;;;;;;;1.67;1.17;;;-4.90;99.90;;;;;;5097477;28;20435;-48
2021/12/26 06:27:45;;;;;;;1.40;1.20;;;-5.00;99.90;;;;;;5097155;28;20423;-55
2021/12/26 06:30:13;;;;;;;3.20;2.53;;;-4.90;99.90;;;;;;5096495;28;21065;-54
2021/12/26 06:32:40;;;;;;;1.53;1.17;;;-5.00;99.90;;;;;;5096711;28;20438;-55
2021/12/26 06:35:09;;;;;;;1.97;1.87;;;-5.00;99.90;;;;;;5096431;28;20466;-50
2021/12/26 06:37:37;;;;;;;2.73;2.10;;;-5.00;99.90;;;;;;5097021;28;20486;-57
2021/12/26 06:40:04;;;;;;;2.23;2.13;;;-5.00;99.90;;;;;;5096891;28;20501;-48
2021/12/26 06:42:32;;;;;;;2.20;1.73;;;-5.00;99.90;;;;;;5096910;28;20423;-47
2021/12/26 06:44:59;;;;;;;3.00;2.40;;;-5.00;99.90;;;;;;5096940;28;20473;-52
2021/12/26 06:47:26;;;;;;;4.60;2.77;;;-5.10;99.90;;;;;;5097142;28;20479;-56
2021/12/26 06:49:53;;;;;;;2.03;1.90;;;-5.00;99.90;;;;;;5096121;28;20443;-50
2021/12/26 06:52:21;;;;;;;1.30;1.20;;;-5.00;99.90;;;;;;5096021;28;20440;-53
2021/12/26 06:54:49;;;;;;;0.90;0.70;;;-5.00;99.90;;;;;;5096422;28;21001;-52
2021/12/26 06:57:18;;;;;;;10.43;3.57;;;-5.00;99.90;;;;;;5096372;28;20499;-50
2021/12/26 06:59:46;;;;;;;5.43;3.23;;;-5.00;99.90;;;;;;5095379;28;20513;-52
2021/12/26 07:02:13;;;;;;;1.20;1.10;;;-4.90;99.90;;;;;;5095857;28;20472;-58
2021/12/26 07:04:39;;;;;;;2.73;1.90;;;-5.00;99.90;;;;;;5095921;28;20445;-55
2021/12/26 07:07:06;;;;;;;2.23;1.50;;;-5.00;99.90;;;;;;5096428;28;20446;-54
2021/12/26 07:09:34;;;;;;;2.83;1.83;;;-5.10;99.90;;;;;;5096406;28;20435;-58
2021/12/26 07:12:01;;;;;;;3.87;3.13;;;-5.20;99.90;;;;;;5096216;28;20451;-55
2021/12/26 07:14:28;;;;;;;2.43;1.77;;;-5.20;99.90;;;;;;5095776;28;20439;-52
2021/12/26 07:16:55;;;;;;;3.20;2.93;;;-5.30;99.90;;;;;;5095964;28;20465;-51
2021/12/26 07:19:25;;;;;;;5.60;2.83;;;-5.30;99.90;;;;;;5096100;28;20504;-52
2021/12/26 07:21:52;;;;;;;2.10;1.90;;;-5.20;99.90;;;;;;5096280;28;20438;-57
2021/12/26 07:24:18;;;;;;;2.90;2.00;;;-5.20;99.90;;;;;;5093959;28;20447;-56
2021/12/26 07:26:47;;;;;;;5.57;3.43;;;-5.30;99.90;;;;;;5092627;28;20892;-55
2021/12/26 07:29:13;;;;;;;1.23;1.13;;;-5.40;99.90;;;;;;5094727;28;20423;-51
2021/12/26 07:31:40;;;;;;;1.60;1.50;;;-5.40;99.90;;;;;;5095345;28;20435;-51
2021/12/26 07:34:07;;;;;;;5.40;2.23;;;-5.50;99.90;;;;;;5095551;28;20447;-50
2021/12/26 07:36:33;;;;;;;4.03;2.30;;;-5.50;99.90;;;;;;5095751;28;20501;-51
2021/12/26 07:39:01;;;;;;;4.00;1.10;;;-5.60;99.90;;;;;;5095900;28;20517;-54
2021/12/26 07:41:27;;;;;;;2.50;1.77;;;-5.60;99.90;;;;;;5096221;28;20473;-52
2021/12/26 07:43:58;;;;;;;3.13;2.83;;;-5.50;99.90;;;;;;5096623;28;20442;-51
2021/12/26 07:46:25;;;;;;;6.20;2.60;;;-5.40;99.90;;;;;;5095947;28;20467;-56
2021/12/26 07:48:52;;;;;;;2.67;2.43;;;-5.40;99.90;;;;;;5095832;28;20883;-52
2021/12/26 07:51:20;;;;;;;1.70;1.07;;;-5.50;99.90;;;;;;5096093;28;20457;-55
2021/12/26 07:53:49;;;;;;;10.13;3.90;;;-5.50;99.90;;;;;;5091853;28;20443;-57
2021/12/26 07:56:15;;;;;;;1.30;1.20;;;-5.40;99.90;;;;;;5074029;28;20465;-48
2021/12/26 07:58:44;;;;;;;1.43;1.00;;;-5.50;99.90;;;;;;5074331;28;20508;-52
2021/12/26 08:01:13;;;;;;;2.53;1.87;;;-5.50;99.90;;;;;;5075454;28;20459;-52
2021/12/26 08:03:40;;;;;;;2.73;2.43;;;-5.50;99.90;;;;;;5075110;28;20533;-48
2021/12/26 08:06:08;;;;;;;1.40;1.07;;;-5.50;99.90;;;;;;5075182;28;20446;-51
2021/12/26 08:08:35;;;;;;;1.27;1.17;;;-5.50;99.90;;;;;;5074935;28;20449;-53
2021/12/26 08:11:02;;;;;;;5.53;3.63;;;-5.50;99.90;;;;;;5074622;28;20875;-52
2021/12/26 08:13:31;;;;;;;1.60;1.50;;;-5.50;99.90;;;;;;5078024;28;20503;-53
2021/12/26 08:15:58;;;;;;;2.03;1.83;;;-5.50;99.90;;;;;;5078177;28;20506;-57
2021/12/26 08:18:26;;;;;;;1.47;1.37;;;-5.50;99.90;;;;;;5077932;28;20482;-55
2021/12/26 08:20:52;;;;;;;2.80;1.43;;;-5.50;99.90;;;;;;5094699;28;20473;-51
2021/12/26 08:23:21;;;;;;;4.07;1.83;;;-5.50;99.90;;;;;;5099330;28;20435;-48
2021/12/26 08:25:48;;;;;;;4.60;2.80;;;-5.40;99.90;;;;;;5098984;28;20492;-54
2021/12/26 08:28:15;;;;;;;9.40;2.27;;;-5.40;99.90;;;;;;5099648;28;20450;-52
2021/12/26 08:30:42;;;;;;;3.20;2.90;;;-5.30;99.90;;;;;;5098612;28;20466;-55
2021/12/26 08:33:09;;;;;;;8.90;4.00;;;-5.20;99.90;;;;;;5098879;28;20427;-50
2021/12/26 08:35:39;;;;;;;2.17;1.90;;;-5.20;99.90;;;;;;5098594;28;20442;-55
2021/12/26 08:38:06;;;;;;;1.77;1.53;;;-5.20;99.90;;;;;;5098715;28;20558;-48
2021/12/26 08:40:33;;;;;;;5.10;3.00;;;-5.10;99.90;;;;;;5098224;28;20453;-56
2021/12/26 08:43:00;;;;;;;2.60;2.30;;;-5.10;99.90;;;;;;5098254;28;20524;-55
2021/12/26 08:45:27;;;;;;;3.33;2.93;;;-5.00;99.90;;;;;;5098476;28;20476;-55
2021/12/26 08:47:56;;;;;;;2.80;2.20;;;-4.90;99.90;;;;;;5098282;28;20463;-54
2021/12/26 08:50:25;;;;;;;3.20;2.20;;;-4.90;99.90;;;;;;5098219;28;20450;-57
2021/12/26 08:52:53;;;;;;;6.00;2.30;;;-4.90;99.90;;;;;;5098472;28;20559;-54
2021/12/26 08:55:20;;;;;;;7.27;1.70;;;-4.90;99.90;;;;;;5099299;28;20497;-52
2021/12/26 08:57:48;;;;;;;4.37;2.50;;;-4.80;99.90;;;;;;5098927;28;20473;-54
2021/12/26 09:00:16;;;;;;;3.53;3.23;;;-4.70;99.90;;;;;;5098812;28;20422;-52
2021/12/26 09:02:45;;;;;;;6.73;3.73;;;-4.70;99.90;;;;;;5098932;28;20449;-53
2021/12/26 09:05:13;;;;;;;20.93;1.73;;;-4.60;99.90;;;;;;5099039;28;20439;-51
2021/12/26 09:07:41;;;;;;;8.17;2.40;;;-4.60;99.90;;;;;;5099379;28;20482;-52
2021/12/26 09:10:12;;;;;;;3.33;2.83;;;-4.50;99.90;;;;;;5098360;28;20430;-49
2021/12/26 09:12:40;;;;;;;2.27;1.80;;;-4.60;99.90;;;;;;5099040;28;20424;-50
2021/12/26 09:15:11;;;;;;;5.10;2.47;;;-4.50;99.90;;;;;;5098188;28;20470;-49
2021/12/26 09:17:42;;;;;;;2.80;2.60;;;-4.50;99.90;;;;;;5098425;28;20427;-54
2021/12/26 09:20:10;;;;;;;4.50;1.93;;;-4.40;99.90;;;;;;5098581;28;20498;-57
2021/12/26 09:22:37;;;;;;;3.53;2.33;;;-4.30;99.90;;;;;;5098291;28;20439;-53
2021/12/26 09:25:04;;;;;;;10.27;4.13;;;-4.30;99.90;;;;;;5097707;28;20461;-55
2021/12/26 09:27:32;;;;;;;1.60;1.43;;;-4.20;99.90;;;;;;5098886;28;20451;-53
2021/12/26 09:30:01;;;;;;;1.93;1.83;;;-4.10;99.90;;;;;;5098163;28;20482;-54
2021/12/26 09:32:27;;;;;;;3.77;2.50;;;-4.20;99.90;;;;;;5098263;28;20439;-55
2021/12/26 09:34:54;;;;;;;2.67;2.47;;;-4.10;99.90;;;;;;5098675;28;20460;-51
2021/12/26 09:37:21;;;;;;;6.10;2.73;;;-4.10;99.90;;;;;;5098548;28;20443;-52
2021/12/26 09:39:48;;;;;;;11.17;2.43;;;-4.10;99.90;;;;;;5098574;28;20483;-54
2021/12/26 09:42:14;;;;;;;3.73;3.43;;;-4.00;99.90;;;;;;5098297;28;20449;-56
2021/12/26 09:44:43;;;;;;;5.27;3.03;;;-4.00;99.90;;;;;;5098162;28;20451;-53
2021/12/26 09:47:10;;;;;;;4.07;2.03;;;-3.90;99.90;;;;;;5098223;28;20455;-58
2021/12/26 09:49:38;;;;;;;2.03;1.80;;;-3.90;99.90;;;;;;5098748;28;20507;-56
2021/12/26 09:52:05;;;;;;;6.00;2.23;;;-3.80;99.90;;;;;;5098105;28;20446;-52
2021/12/26 09:54:32;;;;;;;4.63;2.33;;;-3.60;99.90;;;;;;5097758;28;20466;-53
2021/12/26 09:56:59;;;;;;;2.93;1.77;;;-3.50;99.90;;;;;;5098187;28;20480;-50
2021/12/26 09:59:30;;;;;;;14.13;4.60;;;-3.40;99.90;;;;;;5097924;28;20466;-57
2021/12/26 10:02:08;;;;;;;2.67;2.47;;;-3.30;99.90;;;;;;5098040;28;20427;-51
2021/12/26 10:04:36;;;;;;;3.37;3.00;;;-3.10;99.90;;;;;;5097804;28;20486;-56
2021/12/26 10:07:09;;;;;;;8.93;3.23;;;-2.70;99.90;;;;;;5097520;28;20437;-56
2021/12/26 10:09:38;;;;;;;2.40;2.20;;;-2.50;99.90;;;;;;5097019;28;20435;-51
2021/12/26 10:12:06;;;;;;;4.23;3.07;;;-2.20;99.90;;;;;;5096742;28;20431;-53
2021/12/26 10:14:35;;;;;;;6.90;4.07;;;-1.70;99.90;;;;;;5096218;28;20453;-48
2021/12/26 10:17:06;;;;;;;5.77;2.93;;;-1.00;99.90;;;;;;5096061;28;20430;-53
2021/12/26 10:19:33;;;;;;;6.30;4.20;;;0.20;99.90;;;;;;5096468;28;20504;-52
2021/12/26 10:22:03;;;;;;;11.30;5.50;;;1.30;99.90;;;;;;5096493;28;20485;-50
2021/12/26 10:24:32;;;;;;;9.97;6.20;;;2.40;99.90;;;;;;5096213;28;20470;-53
2021/12/26 10:27:04;;;;;;;9.93;6.50;;;3.00;99.90;;;;;;5097013;28;20415;-52
2021/12/26 10:29:33;;;;;;;13.37;6.63;;;2.80;97.90;;;;;;5096504;28;20458;-54
2021/12/26 10:32:05;;;;;;;10.70;5.90;;;2.30;97.00;;;;;;5096465;28;20447;-53
2021/12/26 10:34:35;;;;;;;14.80;7.80;;;1.70;98.40;;;;;;5096582;28;20437;-47
2021/12/26 10:37:05;;;;;;;6.73;4.13;;;1.00;99.90;;;;;;5096784;28;20423;-55
2021/12/26 10:39:38;;;;;;;6.87;3.97;;;0.50;99.90;;;;;;5097132;28;20466;-54
2021/12/26 10:42:07;;;;;;;8.60;6.37;;;0.00;99.90;;;;;;5097381;28;20488;-52
2021/12/26 10:44:37;;;;;;;5.67;3.60;;;-0.40;99.90;;;;;;5097308;28;20459;-52
2021/12/26 10:47:07;;;;;;;5.83;3.57;;;-0.60;99.90;;;;;;5096649;28;20477;-53
2021/12/26 10:49:45;;;;;;;5.93;3.73;;;-0.80;99.90;;;;;;5096928;28;20435;-53
2021/12/26 10:52:31;;;;;;;14.80;5.33;;;-1.00;99.90;;;;;;5097191;28;20463;-61
2021/12/26 10:55:04;;;;;;;10.73;4.00;;;-1.20;99.90;;;;;;5096801;28;20455;-51
2021/12/26 10:57:34;;;;;;;4.20;3.17;;;-1.30;99.90;;;;;;5096604;28;20433;-54
2021/12/26 11:00:21;;;;;;;2.97;2.40;;;-1.40;99.90;;;;;;5096566;28;20476;-61
2021/12/26 11:02:52;;;;;;;4.50;2.80;;;-1.50;99.90;;;;;;5096450;28;20443;-54
2021/12/26 11:05:22;;;;;;;6.93;2.73;;;-1.50;99.90;;;;;;5096595;28;20425;-53
2021/12/26 11:07:55;;;;;;;8.50;3.30;;;-1.50;99.90;;;;;;5096737;28;20435;-54
2021/12/26 11:10:26;;;;;;;6.70;2.13;;;-1.50;99.90;;;;;;5096949;28;20493;-50
2021/12/26 11:12:55;;;;;;;3.20;2.90;;;-1.10;99.90;;;;;;5096686;28;20437;-53
2021/12/26 11:15:23;;;;;;;8.00;4.70;;;-0.80;99.90;;;;;;5096494;28;20442;-52
2021/12/26 11:17:55;;;;;;;5.40;3.60;;;-0.70;99.90;;;;;;5096610;28;20476;-48
2021/12/26 11:20:36;;;;;;;8.93;2.53;;;-0.60;99.90;;;;;;5097079;28;20461;-49
2021/12/26 11:23:09;;;;;;;14.33;4.93;;;-0.70;99.90;;;;;;5097115;28;20472;-57
2021/12/26 11:25:41;;;;;;;4.47;2.90;;;-0.70;99.90;;;;;;5097295;28;20425;-52
2021/12/26 11:28:08;;;;;;;5.57;3.50;;;-0.60;99.90;;;;;;5096804;28;20471;-50
2021/12/26 11:30:35;;;;;;;15.60;3.50;;;-0.70;99.90;;;;;;5096667;28;20455;-54
2021/12/26 11:33:04;;;;;;;5.20;3.80;;;-0.80;99.90;;;;;;5096892;28;20472;-54
2021/12/26 11:35:35;;;;;;;8.00;2.50;;;-0.80;99.90;;;;;;5096478;28;20450;-57
2021/12/26 11:38:03;;;;;;;5.07;2.20;;;-0.60;99.90;;;;;;5096202;28;20453;-54
2021/12/26 11:40:30;;;;;;;6.60;3.00;;;-0.50;99.90;;;;;;5096074;28;20499;-52
2021/12/26 11:43:44;;;;;;;4.97;2.93;;;-0.50;99.90;;;;;;5096408;28;20449;-53
2021/12/26 11:46:21;;;;;;;3.47;1.97;;;-0.30;99.90;;;;;;5096018;28;20448;-57
2021/12/26 11:49:18;;;;;;;2.30;1.30;;;-0.50;99.90;;;;;;5099967;28;20460;-52
2021/12/26 11:52:06;;;;;;;5.73;4.07;;;-0.70;99.90;;;;;;5066257;28;20476;-50
2021/12/26 11:54:54;;;;;;;2.40;1.60;;;-0.80;99.90;;;;;;5099841;28;20430;-50
2021/12/26 11:58:06;;;;;;;4.87;2.30;;;-0.80;99.90;;;;;;5099530;28;20469;-51
2021/12/26 12:00:35;;;;;;;2.37;1.83;;;-0.90;99.90;;;;;;5099388;28;20478;-53
2021/12/26 12:03:04;;;;;;;3.97;2.30;;;-0.90;99.90;;;;;;5099219;28;20492;-53
2021/12/26 12:05:46;;;;;;;3.50;2.43;;;-0.90;99.90;;;;;;5099396;28;20438;-51
2021/12/26 12:08:18;;;;;;;5.53;2.57;;;-0.90;99.90;;;;;;5099530;28;20482;-49
2021/12/26 12:10:55;;;;;;;2.07;1.87;;;-0.80;99.90;;;;;;5099937;28;20449;-51
2021/12/26 12:13:49;;;;;;;4.10;2.33;;;-0.80;99.90;;;;;;5099665;28;20497;-47
2021/12/26 12:16:31;;;;;;;8.27;3.50;;;-0.70;99.90;;;;;;5099714;28;20455;-57
2021/12/26 12:19:01;;;;;;;4.20;2.00;;;-0.70;99.90;;;;;;5099154;28;20487;-53
2021/12/26 12:21:36;;;;;;;8.70;2.97;;;-0.70;99.90;;;;;;5099267;28;20430;-58
2021/12/26 12:24:06;;;;;;;6.60;2.20;;;-0.60;99.90;;;;;;5098936;28;20445;-52
2021/12/26 12:26:45;;;;;;;3.80;2.97;;;-0.60;99.90;;;;;;5098647;28;20443;-52
2021/12/26 12:29:14;;;;;;;5.60;3.27;;;-0.50;99.90;;;;;;5098122;28;20892;-54
2021/12/26 12:31:42;;;;;;;4.73;1.70;;;-0.50;99.90;;;;;;5098780;28;20418;-51
2021/12/26 12:34:11;;;;;;;7.10;3.80;;;-0.50;99.90;;;;;;5097546;28;20495;-49
2021/12/26 12:36:40;;;;;;;11.57;4.40;;;-0.50;99.90;;;;;;5096806;28;20444;-51
2021/12/26 12:39:17;;;;;;;3.20;1.80;;;-0.40;99.90;;;;;;5152457;22;20492;-53
2021/12/26 12:41:45;;;;;;;3.27;2.53;;;-0.40;99.90;;;;;;5093160;28;20476;-54
2021/12/26 12:44:29;;;;;;;3.50;1.57;;;-0.40;99.90;;;;;;5093051;28;20477;-50
2021/12/26 12:47:02;;;;;;;1.90;1.70;;;-0.40;99.90;;;;;;5092862;28;20429;-56
2021/12/26 12:49:43;;;;;;;3.30;2.20;;;-0.40;99.90;;;;;;5092216;28;20477;-54
2021/12/26 12:52:38;;;;;;;2.63;2.20;;;-0.30;99.90;;;;;;5092741;28;20442;-52
2021/12/26 12:55:06;;;;;;;3.37;1.90;;;-0.30;99.90;;;;;;5092655;28;20466;-51
2021/12/26 12:57:36;;;;;;;2.13;1.40;;;-0.30;99.90;;;;;;5097734;28;20442;-50